createdAt,value
2024-05-09T00:02:13.811Z,6.43
2024-05-09T00:04:59.625Z,7.07
2024-05-09T00:07:45.384Z,5.82
2024-05-09T00:10:36.372Z,5.97
2024-05-09T00:13:23.985Z,7.80
2024-05-09T00:16:09.456Z,8.50
2024-05-09T00:18:55.535Z,8.30
2024-05-09T00:21:43.275Z,5.70
2024-05-09T00:24:29.241Z,5.78
2024-05-09T00:27:15.967Z,6.20
2024-05-09T00:30:01.571Z,5.97
2024-05-09T00:32:47.266Z,7.25
2024-05-09T00:35:33.173Z,6.50
2024-05-09T00:38:19.166Z,5.68
2024-05-09T00:41:05.073Z,6.03
2024-05-09T00:43:51.062Z,6.65
2024-05-09T00:46:36.969Z,5.95
2024-05-09T00:49:23.507Z,6.72
2024-05-09T00:52:10.430Z,7.68
2024-05-09T00:54:57.196Z,7.88
2024-05-09T00:57:44.250Z,7.93
2024-05-09T01:00:37.871Z,7.35
2024-05-09T01:03:26.158Z,10.50
2024-05-09T01:06:12.385Z,7.75
2024-05-09T01:08:57.873Z,9.55
2024-05-09T01:11:43.638Z,6.57
2024-05-09T01:14:29.270Z,7.18
2024-05-09T01:17:15.188Z,8.52
2024-05-09T01:20:01.172Z,7.18
2024-05-09T01:22:48.089Z,8.13
2024-05-09T01:25:33.814Z,7.22
2024-05-09T01:28:19.362Z,7.55
2024-05-09T01:31:05.127Z,6.80
2024-05-09T01:33:51.155Z,8.80
2024-05-09T01:36:37.062Z,7.18
2024-05-09T01:39:23.008Z,6.43
2024-05-09T01:42:09.104Z,8.07
2024-05-09T01:44:54.659Z,9.60
2024-05-09T01:47:40.211Z,9.68
2024-05-09T01:50:37.126Z,12.88
2024-05-09T01:53:25.956Z,9.15
2024-05-09T01:56:11.666Z,8.27
2024-05-09T01:58:57.738Z,10.18
2024-05-09T02:01:56.503Z,8.77
2024-05-09T02:04:47.102Z,9.75
2024-05-09T02:07:35.872Z,7.57
2024-05-09T02:10:26.494Z,7.47
2024-05-09T02:13:18.294Z,6.65
2024-05-09T02:16:04.333Z,8.05
2024-05-09T02:18:50.308Z,8.10
2024-05-09T02:21:36.815Z,9.25
2024-05-09T02:24:22.181Z,7.85
2024-05-09T02:27:07.535Z,8.48
2024-05-09T02:29:52.918Z,8.00
2024-05-09T02:32:38.705Z,8.50
2024-05-09T02:35:24.410Z,7.43
2024-05-09T02:38:10.154Z,8.50
2024-05-09T02:40:56.559Z,7.45
2024-05-09T02:43:42.209Z,8.30
2024-05-09T02:46:28.171Z,8.07
2024-05-09T02:49:14.222Z,8.40
2024-05-09T02:51:59.909Z,11.15
2024-05-09T02:54:45.842Z,8.23
2024-05-09T02:57:31.466Z,9.30
2024-05-09T03:00:22.789Z,7.90
2024-05-09T03:03:14.479Z,8.38
2024-05-09T03:06:02.468Z,8.68
2024-05-09T03:08:48.611Z,8.13
2024-05-09T03:11:34.553Z,6.93
2024-05-09T03:14:20.378Z,8.02
2024-05-09T03:17:05.872Z,8.25
2024-05-09T03:19:52.517Z,7.43
2024-05-09T03:22:38.564Z,8.48
2024-05-09T03:25:24.190Z,7.80
2024-05-09T03:28:11.462Z,7.78
2024-05-09T03:30:57.369Z,6.55
2024-05-09T03:33:42.862Z,7.78
2024-05-09T03:36:28.719Z,6.88
2024-05-09T03:39:14.203Z,9.25
2024-05-09T03:42:00.124Z,5.80
2024-05-09T03:44:45.990Z,9.00
2024-05-09T03:47:35.485Z,6.22
2024-05-09T03:50:29.439Z,7.10
2024-05-09T03:53:19.479Z,6.82
2024-05-09T03:56:08.380Z,5.15
2024-05-09T03:58:55.588Z,6.85
2024-05-09T04:01:41.947Z,5.90
2024-05-09T04:04:27.872Z,6.88
2024-05-09T04:07:13.580Z,6.78
2024-05-09T04:09:59.262Z,6.38
2024-05-09T04:12:47.848Z,6.55
2024-05-09T04:15:33.398Z,5.65
2024-05-09T04:18:19.692Z,6.78
2024-05-09T04:21:06.568Z,5.00
2024-05-09T04:23:52.161Z,6.55
2024-05-09T04:26:37.698Z,5.65
2024-05-09T04:29:23.603Z,8.65
2024-05-09T04:32:09.445Z,6.13
2024-05-09T04:34:56.426Z,5.75
2024-05-09T04:37:42.467Z,7.35
2024-05-09T04:40:33.366Z,5.03
2024-05-09T04:43:25.088Z,4.82
2024-05-09T04:46:11.125Z,4.82
2024-05-09T04:48:57.272Z,5.68
2024-05-09T04:51:43.053Z,7.68
2024-05-09T04:54:35.819Z,5.95
2024-05-09T04:57:22.414Z,4.78
2024-05-09T05:00:14.771Z,5.97
2024-05-09T05:03:14.487Z,7.00
2024-05-09T05:06:02.569Z,7.05
2024-05-09T05:08:48.390Z,5.88
2024-05-09T05:11:34.109Z,5.45
2024-05-09T05:14:20.690Z,6.93
2024-05-09T05:20:46.333Z,7.57
2024-05-09T05:23:41.959Z,5.53
2024-05-09T05:26:34.769Z,6.40
2024-05-09T05:30:35.007Z,6.28
2024-05-09T05:33:25.591Z,5.65
2024-05-09T05:42:24.763Z,5.68
2024-05-09T05:45:12.710Z,5.13
2024-05-09T05:48:20.784Z,5.45
2024-05-09T05:51:10.629Z,5.65
2024-05-09T05:54:11.518Z,6.05
2024-05-09T05:57:34.178Z,6.05
2024-05-09T06:00:29.725Z,5.45
2024-05-09T06:03:30.245Z,4.30
2024-05-09T06:11:08.302Z,7.07
2024-05-09T06:14:08.441Z,4.60
2024-05-09T06:17:02.847Z,5.80
2024-05-09T06:19:57.207Z,5.95
2024-05-09T06:30:21.215Z,8.55
2024-05-09T06:33:31.492Z,7.05
2024-05-09T06:36:34.963Z,4.43
2024-05-09T06:39:20.868Z,6.25
2024-05-09T06:42:08.224Z,4.97
2024-05-09T06:44:53.949Z,4.68
2024-05-09T06:48:05.955Z,9.70
2024-05-09T06:50:54.810Z,5.38
2024-05-09T06:53:49.803Z,6.80
2024-05-09T06:56:38.111Z,4.97
2024-05-09T06:59:23.722Z,5.30
2024-05-09T07:02:09.884Z,3.75
2024-05-09T07:04:55.763Z,4.75
2024-05-09T07:07:45.132Z,6.60
2024-05-09T07:10:35.045Z,10.50
2024-05-09T07:13:38.462Z,4.78
2024-05-09T07:20:32.454Z,3.83
2024-05-09T07:23:30.627Z,6.22
2024-05-09T07:26:55.008Z,3.88
2024-05-09T07:35:00.333Z,9.25
2024-05-09T07:38:27.496Z,4.60
2024-05-09T07:41:14.804Z,4.15
2024-05-09T07:44:06.071Z,6.30
2024-05-09T07:53:38.035Z,4.70
2024-05-09T07:56:41.199Z,4.78
2024-05-09T07:59:42.124Z,4.53
2024-05-09T08:02:41.374Z,4.50
2024-05-09T08:06:10.742Z,4.93
2024-05-09T08:09:08.231Z,7.40
2024-05-09T08:12:06.604Z,6.13
2024-05-09T08:15:33.201Z,7.43
2024-05-09T08:28:16.646Z,7.80
2024-05-09T08:39:12.926Z,5.50
2024-05-09T08:46:52.246Z,6.05
2024-05-09T08:50:10.972Z,4.40
2024-05-09T08:53:03.687Z,5.97
2024-05-09T08:56:15.522Z,7.63
2024-05-09T08:59:20.284Z,8.77
2024-05-09T09:02:21.307Z,4.78
2024-05-09T09:05:42.016Z,7.85
2024-05-09T09:08:56.075Z,5.72
2024-05-09T09:11:55.444Z,5.45
2024-05-09T09:15:04.255Z,5.65
2024-05-09T09:18:12.610Z,6.03
2024-05-09T09:21:44.411Z,4.22
2024-05-09T09:25:50.817Z,4.35
2024-05-09T09:28:29.993Z,6.20
2024-05-09T09:31:21.353Z,6.07
2024-05-09T09:35:05.741Z,5.63
2024-05-09T09:38:02.915Z,4.57
2024-05-09T09:40:50.767Z,5.95
2024-05-09T09:43:43.271Z,6.25
2024-05-09T09:46:42.590Z,4.78
2024-05-09T09:49:37.591Z,6.28
2024-05-09T09:52:47.059Z,6.05
2024-05-09T09:55:50.778Z,6.47
2024-05-09T09:58:53.386Z,8.27
2024-05-09T10:02:09.795Z,6.20
2024-05-09T10:05:08.370Z,4.32
2024-05-09T10:08:00.128Z,6.38
2024-05-09T10:10:50.238Z,8.48
2024-05-09T10:13:39.131Z,4.28
2024-05-09T10:16:40.218Z,3.65
2024-05-09T10:19:49.355Z,6.32
2024-05-09T10:22:55.592Z,6.05
2024-05-09T10:29:20.374Z,5.47
2024-05-09T10:35:54.709Z,5.47
2024-05-09T10:38:44.746Z,7.28
2024-05-09T10:42:10.567Z,6.38
2024-05-09T10:45:02.674Z,5.05
2024-05-09T10:47:56.695Z,6.20
2024-05-09T10:50:44.198Z,3.83
2024-05-09T10:53:55.658Z,6.10
2024-05-09T10:57:14.855Z,6.70
2024-05-09T11:00:27.464Z,6.40
2024-05-09T11:04:02.197Z,5.95
2024-05-09T11:06:52.213Z,4.10
2024-05-09T11:10:09.857Z,5.88
2024-05-09T11:13:00.932Z,4.25
2024-05-09T11:15:58.245Z,6.78
2024-05-09T11:19:12.449Z,5.45
2024-05-09T11:22:05.094Z,4.82
2024-05-09T11:25:05.205Z,4.55
2024-05-09T11:27:59.457Z,5.50
2024-05-09T11:30:45.841Z,4.53
2024-05-09T11:33:31.721Z,3.70
2024-05-09T11:36:25.703Z,5.22
2024-05-09T11:39:16.039Z,3.60
2024-05-09T11:42:09.681Z,5.35
2024-05-09T11:44:55.363Z,4.00
2024-05-09T11:47:47.538Z,5.45
2024-05-09T11:50:35.879Z,4.75
2024-05-09T11:53:21.675Z,6.40
2024-05-09T11:56:13.347Z,3.85
2024-05-09T11:59:01.953Z,4.53
2024-05-09T12:01:48.266Z,3.40
2024-05-09T12:04:39.956Z,7.65
2024-05-09T12:07:27.618Z,5.65
2024-05-09T12:10:19.866Z,3.30
2024-05-09T12:13:08.504Z,5.05
2024-05-09T12:15:54.718Z,4.65
2024-05-09T12:18:40.442Z,4.15
2024-05-09T12:21:26.195Z,4.22
2024-05-09T12:24:16.897Z,5.22
2024-05-09T12:27:22.562Z,3.35
2024-05-09T12:30:11.551Z,5.43
2024-05-09T12:33:00.099Z,5.07
2024-05-09T12:35:52.563Z,4.28
2024-05-09T12:38:46.930Z,3.88
2024-05-09T12:41:32.646Z,6.53
2024-05-09T12:44:18.297Z,4.80
2024-05-09T12:47:03.869Z,5.55
2024-05-09T12:49:59.654Z,4.63
2024-05-09T12:52:45.171Z,4.53
2024-05-09T12:55:37.286Z,5.55
2024-05-09T12:58:29.915Z,3.65
2024-05-09T13:01:15.915Z,3.97
2024-05-09T13:04:02.286Z,3.33
2024-05-09T13:06:49.531Z,5.38
2024-05-09T13:09:35.453Z,3.25
2024-05-09T13:12:24.300Z,5.07
2024-05-09T13:15:10.319Z,4.18
2024-05-09T13:18:00.510Z,5.25
2024-05-09T13:20:48.687Z,3.70
2024-05-09T13:23:34.177Z,3.80
2024-05-09T13:26:19.512Z,4.35
2024-05-09T13:29:05.198Z,4.47
2024-05-09T13:31:50.926Z,6.75
2024-05-09T13:34:36.668Z,4.15
2024-05-09T13:37:22.563Z,3.10
2024-05-09T13:40:12.018Z,3.30
2024-05-09T13:43:00.028Z,4.10
2024-05-09T13:45:45.822Z,5.13
2024-05-09T13:48:32.023Z,4.10
2024-05-09T13:51:17.706Z,3.53
2024-05-09T13:54:03.205Z,3.53
2024-05-09T13:56:48.812Z,6.55
2024-05-09T13:59:34.325Z,2.95
2024-05-09T14:02:20.000Z,5.68
2024-05-09T14:05:06.222Z,6.32
2024-05-09T14:07:52.176Z,4.65
2024-05-09T14:10:44.486Z,4.88
2024-05-09T14:13:30.618Z,3.90
2024-05-09T14:16:16.444Z,5.22
2024-05-09T14:19:02.653Z,6.35
2024-05-09T14:21:48.597Z,6.75
2024-05-09T14:24:34.457Z,4.05
2024-05-09T14:27:20.260Z,4.75
2024-05-09T14:30:11.783Z,4.18
2024-05-09T14:33:00.654Z,6.22
2024-05-09T14:35:46.446Z,5.03
2024-05-09T14:38:32.121Z,3.42
2024-05-09T14:41:17.737Z,2.97
2024-05-09T14:44:03.261Z,3.15
2024-05-09T14:46:49.146Z,6.82
2024-05-09T14:49:35.082Z,4.63
2024-05-09T14:52:20.972Z,3.50
2024-05-09T14:55:08.556Z,4.75
2024-05-09T14:57:55.733Z,4.50
2024-05-09T15:00:46.611Z,5.00
2024-05-09T15:03:35.929Z,3.47
2024-05-09T15:06:21.950Z,3.58
2024-05-09T15:09:08.320Z,4.47
2024-05-09T15:11:54.116Z,5.68
2024-05-09T15:14:40.050Z,7.03
2024-05-09T15:17:25.642Z,3.53
2024-05-09T15:20:16.813Z,4.35
2024-05-09T15:23:03.548Z,3.63
2024-05-09T15:25:49.673Z,5.28
2024-05-09T15:28:35.176Z,4.25
2024-05-09T15:31:20.795Z,5.00
2024-05-09T15:34:08.530Z,5.05
2024-05-09T15:36:54.517Z,4.60
2024-05-09T15:39:40.601Z,5.03
2024-05-09T15:42:26.480Z,4.43
2024-05-09T15:45:11.975Z,4.47
2024-05-09T15:47:58.566Z,5.05
2024-05-09T15:50:45.095Z,3.42
2024-05-09T15:53:30.678Z,5.50
2024-05-09T15:56:16.860Z,5.03
2024-05-09T15:59:02.518Z,8.38
2024-05-09T16:01:48.049Z,5.13
2024-05-09T16:04:34.167Z,5.45
2024-05-09T16:07:20.187Z,3.88
2024-05-09T16:10:07.117Z,4.15
2024-05-09T16:12:53.273Z,3.40
2024-05-09T16:15:38.741Z,2.90
2024-05-09T16:18:25.122Z,3.97
2024-05-09T16:21:11.199Z,3.90
2024-05-09T16:23:56.596Z,4.95
2024-05-09T16:26:43.005Z,3.33
2024-05-09T16:29:28.543Z,4.35
2024-05-09T16:32:14.214Z,6.03
2024-05-09T16:34:59.995Z,4.22
2024-05-09T16:37:46.045Z,3.80
2024-05-09T16:40:38.368Z,6.57
2024-05-09T16:43:26.624Z,6.85
2024-05-09T16:46:12.733Z,4.32
2024-05-09T16:48:58.352Z,4.70
2024-05-09T16:51:44.501Z,4.13
2024-05-09T16:54:30.422Z,4.32
2024-05-09T16:57:16.003Z,3.33
2024-05-09T17:00:01.390Z,3.35
2024-05-09T17:02:47.081Z,7.53
2024-05-09T17:05:33.402Z,4.43
2024-05-09T17:08:20.119Z,7.18
2024-05-09T17:11:05.825Z,7.95
2024-05-09T17:13:51.635Z,8.60
2024-05-09T17:16:37.355Z,5.57
2024-05-09T17:19:23.000Z,6.18
2024-05-09T17:22:09.314Z,4.90
2024-05-09T17:24:54.951Z,5.72
2024-05-09T17:27:40.826Z,6.30
2024-05-09T17:30:32.550Z,3.97
2024-05-09T17:33:22.511Z,6.05
2024-05-09T17:36:08.353Z,4.07
2024-05-09T17:38:53.899Z,7.07
2024-05-09T17:41:39.842Z,5.35
2024-05-09T17:44:25.501Z,6.40
2024-05-09T17:47:11.285Z,6.38
2024-05-09T17:49:56.666Z,3.88
2024-05-09T17:52:42.819Z,5.32
2024-05-09T17:55:29.014Z,6.35
2024-05-09T17:58:15.050Z,6.38
2024-05-09T18:01:01.069Z,6.18
2024-05-09T18:03:48.751Z,5.72
2024-05-09T18:06:34.406Z,6.05
2024-05-09T18:09:21.109Z,6.13
2024-05-09T18:12:07.075Z,7.10
2024-05-09T18:14:53.096Z,5.88
2024-05-09T18:17:39.703Z,5.53
2024-05-09T18:20:36.077Z,6.47
2024-05-09T18:23:26.881Z,7.93
2024-05-09T18:26:12.613Z,5.18
2024-05-09T18:28:58.425Z,7.20
2024-05-09T18:31:43.944Z,7.80
2024-05-09T18:34:29.550Z,8.27
2024-05-09T18:37:15.334Z,8.82
2024-05-09T18:40:00.750Z,7.43
2024-05-09T18:42:46.372Z,7.53
2024-05-09T18:45:32.480Z,7.38
2024-05-09T18:48:19.120Z,5.93
2024-05-09T18:51:07.788Z,5.95
2024-05-09T18:53:55.306Z,8.48
2024-05-09T18:56:41.358Z,5.70
2024-05-09T18:59:27.137Z,8.25
2024-05-09T19:02:13.613Z,5.03
2024-05-09T19:04:59.212Z,7.25
2024-05-09T19:07:44.953Z,8.15
2024-05-09T19:10:34.625Z,7.05
2024-05-09T19:13:21.410Z,9.02
2024-05-09T19:16:07.669Z,8.35
2024-05-09T19:18:54.067Z,6.65
2024-05-09T19:21:42.595Z,5.47
2024-05-09T19:24:28.176Z,5.65
2024-05-09T19:27:14.011Z,5.53
2024-05-09T19:30:00.088Z,6.32
2024-05-09T19:32:46.315Z,6.57
2024-05-09T19:35:32.551Z,6.70
2024-05-09T19:38:18.198Z,5.63
2024-05-09T19:41:03.790Z,9.27
2024-05-09T19:43:49.819Z,8.07
2024-05-09T19:46:35.747Z,7.03
2024-05-09T19:49:21.887Z,7.78
2024-05-09T19:52:07.725Z,6.20
2024-05-09T19:54:53.419Z,5.13
2024-05-09T19:57:42.020Z,6.15
2024-05-09T20:00:34.730Z,8.65
2024-05-09T20:03:21.824Z,6.32
2024-05-09T20:06:07.834Z,6.85
2024-05-09T20:08:57.262Z,6.55
2024-05-09T20:11:43.070Z,7.90
2024-05-09T20:14:28.713Z,8.32
2024-05-09T20:17:14.419Z,10.25
2024-05-09T20:20:00.704Z,10.25
2024-05-09T20:22:46.391Z,10.27
2024-05-09T20:25:32.251Z,9.23
2024-05-09T20:28:18.218Z,10.23
2024-05-09T20:31:03.887Z,9.00
2024-05-09T20:33:49.726Z,12.95
2024-05-09T20:36:35.519Z,8.65
2024-05-09T20:39:26.054Z,10.15
2024-05-09T20:44:57.400Z,12.43
2024-05-09T20:47:42.915Z,9.20
2024-05-09T20:50:36.900Z,11.90
2024-05-09T20:56:11.607Z,10.02
2024-05-09T20:58:59.992Z,9.45
2024-05-09T21:01:49.259Z,10.82
2024-05-09T21:04:35.279Z,10.18
2024-05-09T21:07:21.301Z,9.05
2024-05-09T21:10:15.250Z,9.32
2024-05-09T21:13:06.625Z,11.25
2024-05-09T21:15:52.935Z,8.48
2024-05-09T21:18:38.991Z,10.38
2024-05-09T21:21:24.703Z,7.80
2024-05-09T21:24:10.099Z,10.85
2024-05-09T21:26:55.651Z,7.38
2024-05-09T21:29:41.254Z,7.93
2024-05-09T21:32:26.834Z,8.15
2024-05-09T21:35:12.814Z,7.93
2024-05-09T21:37:58.324Z,8.13
2024-05-09T21:40:44.971Z,7.78
2024-05-09T21:43:31.670Z,7.85
2024-05-09T21:46:17.413Z,7.05
2024-05-09T21:49:03.334Z,7.55
2024-05-09T21:51:49.983Z,8.80
2024-05-09T21:54:35.767Z,7.63
2024-05-09T21:57:22.139Z,8.23
2024-05-09T22:00:25.154Z,7.88
2024-05-09T22:03:18.371Z,7.25
2024-05-09T22:06:04.227Z,7.78
2024-05-09T22:08:49.717Z,6.75
2024-05-09T22:11:35.107Z,7.93
2024-05-09T22:14:21.386Z,9.00
2024-05-09T22:17:07.009Z,6.25
2024-05-09T22:19:53.380Z,7.60
2024-05-09T22:22:39.091Z,6.90
2024-05-09T22:25:26.031Z,8.50
2024-05-09T22:28:15.750Z,8.40
2024-05-09T22:31:01.785Z,6.05
2024-05-09T22:33:48.246Z,6.95
2024-05-09T22:36:34.439Z,7.13
2024-05-09T22:39:20.325Z,6.75
2024-05-09T22:42:05.761Z,6.95
2024-05-09T22:44:51.406Z,10.25
2024-05-09T22:47:37.410Z,6.88
2024-05-09T22:50:26.959Z,6.75
2024-05-09T22:53:16.583Z,7.57
2024-05-09T22:56:02.603Z,7.20
2024-05-09T22:58:48.459Z,6.57
2024-05-09T23:01:34.066Z,8.63
2024-05-09T23:04:20.294Z,8.55
2024-05-09T23:07:07.358Z,7.75
2024-05-09T23:09:53.328Z,7.68
2024-05-09T23:12:39.708Z,8.13
2024-05-09T23:15:25.630Z,7.80
2024-05-09T23:18:11.580Z,9.38
2024-05-09T23:20:57.402Z,7.00
2024-05-09T23:23:42.683Z,8.98
2024-05-09T23:26:28.328Z,9.82
2024-05-09T23:29:13.869Z,8.32
2024-05-09T23:31:59.877Z,7.53
2024-05-09T23:34:45.991Z,8.18
2024-05-09T23:37:31.969Z,7.72
2024-05-09T23:40:19.118Z,9.27
2024-05-09T23:43:12.687Z,7.57
2024-05-09T23:45:59.046Z,9.32
2024-05-09T23:48:45.087Z,7.60
2024-05-09T23:51:31.182Z,10.40
2024-05-09T23:54:17.233Z,7.72
2024-05-09T23:57:02.626Z,10.45
2024-05-09T23:59:49.527Z,9.07
